createdAt,value
2023-04-16T00:01:47.981Z,100026.97
2023-04-16T00:04:14.743Z,100035.88
2023-04-16T00:06:41.483Z,100030.50
2023-04-16T00:09:08.490Z,100030.66
2023-04-16T00:11:35.333Z,100028.06
2023-04-16T00:14:01.896Z,100030.84
2023-04-16T00:16:28.698Z,100029.38
2023-04-16T00:18:55.437Z,100029.44
2023-04-16T00:21:21.975Z,100030.06
2023-04-16T00:23:48.632Z,100030.81
2023-04-16T00:26:16.151Z,100030.19
2023-04-16T00:28:42.654Z,100032.31
2023-04-16T00:31:09.296Z,100037.78
2023-04-16T00:33:35.997Z,100032.72
2023-04-16T00:36:02.630Z,100041.66
2023-04-16T00:38:30.510Z,100033.59
2023-04-16T00:41:00.409Z,100036.84
2023-04-16T00:43:27.382Z,100041.56
2023-04-16T00:45:57.022Z,100041.50
2023-04-16T00:48:23.779Z,100041.56
2023-04-16T00:50:50.359Z,100042.34
2023-04-16T00:53:17.036Z,100042.91
2023-04-16T00:55:44.558Z,100040.41
2023-04-16T00:58:11.248Z,100043.03
2023-04-16T01:03:19.314Z,100044.38
2023-04-16T01:05:46.591Z,100051.97
2023-04-16T01:08:18.599Z,100048.50
2023-04-16T01:10:45.613Z,100048.81
2023-04-16T01:13:12.348Z,100041.25
2023-04-16T01:15:38.997Z,100046.13
2023-04-16T01:18:20.209Z,100057.53
2023-04-16T01:20:47.937Z,100052.28
2023-04-16T01:23:15.008Z,100051.59
2023-04-16T01:25:41.941Z,100050.69
2023-04-16T01:28:08.450Z,100054.81
2023-04-16T01:30:34.980Z,100056.34
2023-04-16T01:33:02.084Z,100054.81
2023-04-16T01:35:28.801Z,100050.44
2023-04-16T01:37:55.596Z,100050.56
2023-04-16T01:40:22.279Z,100048.59
2023-04-16T01:42:48.828Z,100055.19
2023-04-16T01:45:15.702Z,100049.44
2023-04-16T01:47:42.831Z,100052.53
2023-04-16T01:50:09.965Z,100054.78
2023-04-16T01:52:37.190Z,100057.16
2023-04-16T01:55:04.061Z,100057.16
2023-04-16T01:57:30.886Z,100055.91
2023-04-16T01:59:57.420Z,100051.63
2023-04-16T02:02:28.247Z,100053.66
2023-04-16T02:04:55.570Z,100063.13
2023-04-16T02:07:22.213Z,100049.44
2023-04-16T02:09:51.010Z,100057.63
2023-04-16T02:12:18.005Z,100057.97
2023-04-16T02:14:44.885Z,100060.56
2023-04-16T02:17:11.747Z,100063.72
2023-04-16T02:19:38.295Z,100067.78
2023-04-16T02:22:04.978Z,100073.34
2023-04-16T02:24:31.574Z,100066.31
2023-04-16T02:26:58.299Z,100073.34
2023-04-16T02:29:24.895Z,100063.34
2023-04-16T02:31:51.883Z,100071.88
2023-04-16T02:34:18.479Z,100064.66
2023-04-16T02:36:45.260Z,100062.63
2023-04-16T02:39:12.032Z,100067.25
2023-04-16T02:41:38.684Z,100060.75
2023-04-16T02:44:05.580Z,100059.69
2023-04-16T02:46:32.373Z,100062.47
2023-04-16T02:48:58.920Z,100058.94
2023-04-16T02:51:26.417Z,100060.59
2023-04-16T02:53:53.074Z,100055.03
2023-04-16T02:56:19.564Z,100056.16
2023-04-16T02:58:46.151Z,100053.56
2023-04-16T03:01:12.872Z,100064.66
2023-04-16T03:03:39.465Z,100060.03
2023-04-16T03:06:06.122Z,100059.84
2023-04-16T03:08:32.799Z,100063.69
2023-04-16T03:10:59.360Z,100062.56
2023-04-16T03:13:25.978Z,100059.72
2023-04-16T03:15:52.707Z,100064.22
2023-04-16T03:18:19.320Z,100062.56
2023-04-16T03:20:45.905Z,100061.94
2023-04-16T03:23:12.615Z,100058.06
2023-04-16T03:25:40.637Z,100044.25
2023-04-16T03:28:07.196Z,100053.88
2023-04-16T03:30:33.774Z,100049.03
2023-04-16T03:33:00.574Z,100043.88
2023-04-16T03:35:27.340Z,100056.97
2023-04-16T03:37:54.033Z,100046.72
2023-04-16T03:40:20.641Z,100051.28
2023-04-16T03:42:47.241Z,100054.78
2023-04-16T03:45:15.147Z,100060.47
2023-04-16T03:47:42.191Z,100061.19
2023-04-16T03:50:09.223Z,100063.94
2023-04-16T03:52:36.260Z,100064.19
2023-04-16T03:55:04.116Z,100055.91
2023-04-16T03:57:30.850Z,100064.59
2023-04-16T03:59:57.530Z,100064.19
2023-04-16T04:02:24.159Z,100063.25
2023-04-16T04:04:51.146Z,100069.91
2023-04-16T04:07:17.957Z,100067.06
2023-04-16T04:09:44.457Z,100067.06
2023-04-16T04:12:11.130Z,100072.72
2023-04-16T04:14:40.118Z,100070.19
2023-04-16T04:17:07.338Z,100069.09
2023-04-16T04:19:34.160Z,100071.47
2023-04-16T04:22:00.763Z,100073.72
2023-04-16T04:24:27.256Z,100081.88
2023-04-16T04:26:53.883Z,100086.47
2023-04-16T04:29:20.820Z,100082.78
2023-04-16T04:31:47.496Z,100087.41
2023-04-16T04:34:14.225Z,100091.81
2023-04-16T04:36:40.817Z,100100.25
2023-04-16T04:39:07.540Z,100103.25
2023-04-16T04:41:34.431Z,100100.13
2023-04-16T04:44:01.039Z,100100.78
2023-04-16T04:46:27.749Z,100104.72
2023-04-16T04:48:54.449Z,100102.72
2023-04-16T04:51:21.195Z,100095.72
2023-04-16T04:53:47.919Z,100101.25
2023-04-16T04:56:14.432Z,100099.97
2023-04-16T04:58:42.097Z,100106.63
2023-04-16T05:01:08.754Z,100105.69
2023-04-16T05:03:35.536Z,100107.50
2023-04-16T05:06:02.294Z,100108.63
2023-04-16T05:08:28.811Z,100116.38
2023-04-16T05:10:55.599Z,100112.34
2023-04-16T05:13:22.214Z,100120.31
2023-04-16T05:15:48.828Z,100112.19
2023-04-16T05:18:15.753Z,100116.09
2023-04-16T05:20:42.350Z,100118.09
2023-04-16T05:23:08.884Z,100112.00
2023-04-16T05:25:35.729Z,100114.25
2023-04-16T05:28:02.359Z,100121.09
2023-04-16T05:30:28.999Z,100118.69
2023-04-16T05:32:55.727Z,100126.06
2023-04-16T05:35:22.592Z,100132.72
2023-04-16T05:37:49.147Z,100133.47
2023-04-16T05:40:15.909Z,100136.41
2023-04-16T05:42:42.500Z,100131.41
2023-04-16T05:45:09.449Z,100145.09
2023-04-16T05:47:36.041Z,100146.91
2023-04-16T05:50:02.821Z,100146.34
2023-04-16T05:52:29.334Z,100144.31
2023-04-16T05:54:55.948Z,100151.13
2023-04-16T05:57:22.575Z,100159.41
2023-04-16T05:59:49.116Z,100147.06
2023-04-16T06:02:15.745Z,100152.19
2023-04-16T06:04:42.450Z,100160.63
2023-04-16T06:07:08.947Z,100166.50
2023-04-16T06:09:36.101Z,100171.78
2023-04-16T06:12:02.973Z,100163.66
2023-04-16T06:14:29.544Z,100168.81
2023-04-16T06:16:56.425Z,100169.81
2023-04-16T06:19:23.177Z,100185.38
2023-04-16T06:21:50.594Z,100173.28
2023-04-16T06:24:18.481Z,100182.19
2023-04-16T06:26:45.140Z,100175.63
2023-04-16T06:29:12.037Z,100180.28
2023-04-16T06:31:38.689Z,100181.47
2023-04-16T06:34:05.539Z,100173.53
2023-04-16T06:36:32.092Z,100177.94
2023-04-16T06:38:58.585Z,100175.44
2023-04-16T06:41:26.813Z,100182.31
2023-04-16T06:43:53.545Z,100181.41
2023-04-16T06:46:20.079Z,100186.59
2023-04-16T06:48:46.908Z,100188.50
2023-04-16T06:51:13.528Z,100185.59
2023-04-16T06:53:40.185Z,100186.94
2023-04-16T06:56:07.022Z,100186.19
2023-04-16T06:58:33.819Z,100181.91
2023-04-16T07:01:00.577Z,100187.06
2023-04-16T07:03:27.707Z,100184.34
2023-04-16T07:05:54.533Z,100173.59
2023-04-16T07:08:21.074Z,100183.59
2023-04-16T07:10:47.775Z,100185.28
2023-04-16T07:13:14.964Z,100187.13
2023-04-16T07:15:41.484Z,100187.97
2023-04-16T07:18:08.184Z,100186.00
2023-04-16T07:20:36.199Z,100187.84
2023-04-16T07:23:02.910Z,100191.19
2023-04-16T07:25:29.557Z,100190.88
2023-04-16T07:27:56.109Z,100189.34
2023-04-16T07:30:22.841Z,100182.34
2023-04-16T07:32:49.618Z,100179.50
2023-04-16T07:35:16.402Z,100179.69
2023-04-16T07:37:43.007Z,100184.88
2023-04-16T07:40:09.988Z,100178.06
2023-04-16T07:42:36.804Z,100185.56
2023-04-16T07:45:03.509Z,100187.69
2023-04-16T07:47:30.175Z,100191.84
2023-04-16T07:49:56.703Z,100197.13
2023-04-16T07:52:23.334Z,100194.09
2023-04-16T07:54:51.898Z,100197.13
2023-04-16T07:57:18.484Z,100198.25
2023-04-16T07:59:45.361Z,100190.91
2023-04-16T08:02:15.217Z,100195.56
2023-04-16T08:04:42.865Z,100193.13
2023-04-16T08:07:09.754Z,100193.81
2023-04-16T08:09:36.653Z,100188.13
2023-04-16T08:12:03.922Z,100196.19
2023-04-16T08:14:30.963Z,100202.06
2023-04-16T08:16:57.642Z,100197.16
2023-04-16T08:19:24.314Z,100197.00
2023-04-16T08:21:51.304Z,100203.66
2023-04-16T08:24:18.015Z,100199.22
2023-04-16T08:26:44.661Z,100198.53
2023-04-16T08:29:11.489Z,100196.19
2023-04-16T08:31:38.620Z,100208.41
2023-04-16T08:34:05.407Z,100208.41
2023-04-16T08:36:31.922Z,100206.78
2023-04-16T08:38:58.845Z,100210.25
2023-04-16T08:41:28.980Z,100199.81
2023-04-16T08:43:56.824Z,100202.91
2023-04-16T08:46:25.918Z,100192.34
2023-04-16T08:48:56.078Z,100203.53
2023-04-16T08:51:24.155Z,100207.28
2023-04-16T08:53:59.752Z,100205.81
2023-04-16T08:56:27.267Z,100199.97
2023-04-16T08:58:55.119Z,100196.81
2023-04-16T09:01:22.326Z,100202.19
2023-04-16T09:03:49.117Z,100209.75
2023-04-16T09:06:16.588Z,100194.00
2023-04-16T09:08:46.603Z,100207.03
2023-04-16T09:11:19.847Z,100193.25
2023-04-16T09:13:47.312Z,100203.63
2023-04-16T09:16:14.946Z,100206.25
2023-04-16T09:18:41.622Z,100203.81
2023-04-16T09:21:10.949Z,100200.22
2023-04-16T09:23:38.831Z,100197.44
2023-04-16T09:26:06.210Z,100196.78
2023-04-16T09:28:43.710Z,100225.16
2023-04-16T09:31:12.851Z,100199.13
2023-04-16T09:33:39.576Z,100204.38
2023-04-16T09:36:07.690Z,100200.91
2023-04-16T09:38:48.162Z,100198.75
2023-04-16T09:41:18.346Z,100202.63
2023-04-16T09:43:57.966Z,100199.44
2023-04-16T09:46:44.825Z,100206.38
2023-04-16T09:49:17.020Z,100195.50
2023-04-16T09:51:45.526Z,100205.22
2023-04-16T09:54:12.286Z,100197.72
2023-04-16T09:56:43.670Z,100202.56
2023-04-16T09:59:23.616Z,100198.28
2023-04-16T10:01:51.084Z,100197.31
2023-04-16T10:04:17.857Z,100212.03
2023-04-16T10:06:45.981Z,100200.75
2023-04-16T10:09:12.738Z,100209.91
2023-04-16T10:11:39.631Z,100205.00
2023-04-16T10:14:06.366Z,100206.03
2023-04-16T10:16:33.128Z,100209.84
2023-04-16T10:19:00.130Z,100216.63
2023-04-16T10:21:34.075Z,100215.56
2023-04-16T10:24:01.602Z,100224.50
2023-04-16T10:26:30.055Z,100223.72
2023-04-16T10:28:58.699Z,100211.31
2023-04-16T10:31:26.901Z,100207.97
2023-04-16T10:33:54.144Z,100218.63
2023-04-16T10:36:25.109Z,100222.72
2023-04-16T10:38:52.730Z,100214.66
2023-04-16T10:41:22.679Z,100205.63
2023-04-16T10:43:51.068Z,100212.50
2023-04-16T10:46:23.105Z,100212.81
2023-04-16T10:48:53.135Z,100221.69
2023-04-16T10:51:29.315Z,100221.81
2023-04-16T10:53:57.951Z,100210.38
2023-04-16T10:56:26.984Z,100215.25
2023-04-16T10:58:57.571Z,100213.53
2023-04-16T11:01:46.414Z,100216.38
2023-04-16T11:04:22.505Z,100226.38
2023-04-16T11:07:16.587Z,100220.81
2023-04-16T11:10:12.738Z,100228.50
2023-04-16T11:12:49.444Z,100218.44
2023-04-16T11:15:19.275Z,100232.31
2023-04-16T11:17:47.272Z,100248.47
2023-04-16T11:20:19.928Z,100234.97
2023-04-16T11:22:51.535Z,100229.91
2023-04-16T11:25:26.846Z,100243.63
2023-04-16T11:27:53.945Z,100243.66
2023-04-16T11:30:29.633Z,100242.56
2023-04-16T11:32:56.306Z,100236.97
2023-04-16T11:35:23.047Z,100246.88
2023-04-16T11:37:49.962Z,100242.13
2023-04-16T11:40:16.555Z,100238.94
2023-04-16T11:42:44.253Z,100234.28
2023-04-16T11:45:12.153Z,100244.16
2023-04-16T11:47:52.139Z,100243.63
2023-04-16T11:50:27.782Z,100249.72
2023-04-16T11:53:03.650Z,100242.50
2023-04-16T11:55:30.533Z,100252.28
2023-04-16T11:57:57.231Z,100261.94
2023-04-16T12:00:24.680Z,100250.47
2023-04-16T12:02:55.655Z,100267.34
2023-04-16T12:05:38.734Z,100259.72
2023-04-16T12:08:07.965Z,100240.28
2023-04-16T12:10:37.516Z,100238.53
2023-04-16T12:13:15.222Z,100240.81
2023-04-16T12:15:46.774Z,100242.44
2023-04-16T12:18:14.161Z,100241.91
2023-04-16T12:20:44.084Z,100236.00
2023-04-16T12:23:32.986Z,100244.03
2023-04-16T12:26:10.881Z,100231.31
2023-04-16T12:28:38.649Z,100251.22
2023-04-16T12:31:06.047Z,100243.63
2023-04-16T12:33:32.701Z,100227.31
2023-04-16T12:35:59.390Z,100239.41
2023-04-16T12:38:26.978Z,100232.63
2023-04-16T12:40:57.125Z,100229.03
2023-04-16T12:43:24.264Z,100235.06
2023-04-16T12:45:51.105Z,100238.56
2023-04-16T12:48:17.824Z,100249.47
2023-04-16T12:50:44.607Z,100236.78
2023-04-16T12:53:11.960Z,100242.00
2023-04-16T12:55:38.659Z,100244.69
2023-04-16T12:58:05.308Z,100236.88
2023-04-16T13:00:32.113Z,100254.41
2023-04-16T13:02:58.839Z,100246.19
2023-04-16T13:05:25.794Z,100248.59
2023-04-16T13:07:52.509Z,100262.31
2023-04-16T13:10:21.519Z,100265.06
2023-04-16T13:12:48.989Z,100247.09
2023-04-16T13:15:15.860Z,100250.44
2023-04-16T13:17:42.569Z,100255.34
2023-04-16T13:20:09.799Z,100252.75
2023-04-16T13:22:36.498Z,100255.50
2023-04-16T13:25:03.062Z,100251.31
2023-04-16T13:27:32.040Z,100251.47
2023-04-16T13:29:58.606Z,100251.34
2023-04-16T13:32:25.237Z,100246.56
2023-04-16T13:34:51.772Z,100248.97
2023-04-16T13:37:18.315Z,100239.28
2023-04-16T13:39:45.574Z,100243.38
2023-04-16T13:42:12.216Z,100242.81
2023-04-16T13:44:38.808Z,100234.84
2023-04-16T13:47:07.661Z,100227.78
2023-04-16T13:49:36.093Z,100228.06
2023-04-16T13:52:03.385Z,100229.38
2023-04-16T13:54:29.969Z,100225.13
2023-04-16T13:56:56.798Z,100225.84
2023-04-16T13:59:23.393Z,100236.25
2023-04-16T14:01:50.016Z,100234.47
2023-04-16T14:04:16.864Z,100223.16
2023-04-16T14:06:43.410Z,100226.03
2023-04-16T14:09:11.175Z,100220.63
2023-04-16T14:11:37.944Z,100221.53
2023-04-16T14:14:04.933Z,100220.06
2023-04-16T14:16:31.630Z,100229.09
2023-04-16T14:18:58.225Z,100214.06
2023-04-16T14:21:24.796Z,100215.06
2023-04-16T14:23:51.493Z,100218.44
2023-04-16T14:26:18.092Z,100214.19
2023-04-16T14:28:44.815Z,100224.84
2023-04-16T14:31:11.435Z,100214.19
2023-04-16T14:33:38.168Z,100208.06
2023-04-16T14:36:05.054Z,100225.59
2023-04-16T14:38:32.060Z,100221.69
2023-04-16T14:41:00.277Z,100216.81
2023-04-16T14:43:27.342Z,100220.75
2023-04-16T14:45:54.029Z,100213.03
2023-04-16T14:48:21.191Z,100206.28
2023-04-16T14:50:47.776Z,100212.16
2023-04-16T14:53:14.606Z,100228.16
2023-04-16T14:55:41.331Z,100213.75
2023-04-16T14:58:07.857Z,100213.84
2023-04-16T15:00:34.974Z,100212.06
2023-04-16T15:03:01.704Z,100219.28
2023-04-16T15:05:29.880Z,100216.56
2023-04-16T15:07:56.738Z,100216.56
2023-04-16T15:10:23.277Z,100218.91
2023-04-16T15:12:49.925Z,100217.22
2023-04-16T15:15:16.678Z,100221.13
2023-04-16T15:17:43.742Z,100237.47
2023-04-16T15:20:11.017Z,100222.41
2023-04-16T15:22:38.358Z,100220.56
2023-04-16T15:25:06.392Z,100224.19
2023-04-16T15:27:33.027Z,100214.53
2023-04-16T15:29:59.875Z,100222.88
2023-04-16T15:32:26.546Z,100216.75
2023-04-16T15:34:53.224Z,100216.94
2023-04-16T15:37:19.875Z,100220.44
2023-04-16T15:39:46.457Z,100225.25
2023-04-16T15:42:13.329Z,100219.72
2023-04-16T15:44:40.502Z,100214.16
2023-04-16T15:47:08.608Z,100216.59
2023-04-16T15:49:36.112Z,100212.13
2023-04-16T15:52:02.836Z,100236.00
2023-04-16T15:54:30.392Z,100217.69
2023-04-16T15:56:58.671Z,100217.34
2023-04-16T15:59:28.176Z,100226.41
2023-04-16T16:01:54.935Z,100227.44
2023-04-16T16:04:23.164Z,100212.13
2023-04-16T16:06:51.021Z,100213.25
2023-04-16T16:09:18.550Z,100220.44
2023-04-16T16:11:45.054Z,100211.56
2023-04-16T16:14:11.825Z,100218.22
2023-04-16T16:16:39.635Z,100222.50
2023-04-16T16:19:06.933Z,100221.00
2023-04-16T16:21:33.744Z,100223.97
2023-04-16T16:24:00.318Z,100227.81
2023-04-16T16:26:27.201Z,100235.53
2023-04-16T16:28:54.085Z,100224.44
2023-04-16T16:31:20.967Z,100238.66
2023-04-16T16:33:47.656Z,100245.84
2023-04-16T16:36:17.527Z,100229.25
2023-04-16T16:38:46.726Z,100233.69
2023-04-16T16:41:13.679Z,100234.66
2023-04-16T16:43:40.400Z,100226.94
2023-04-16T16:46:07.657Z,100230.47
2023-04-16T16:48:34.338Z,100232.63
2023-04-16T16:51:01.234Z,100243.47
2023-04-16T16:53:27.847Z,100243.59
2023-04-16T16:55:54.390Z,100244.56
2023-04-16T16:58:21.113Z,100241.81
2023-04-16T17:00:47.811Z,100250.66
2023-04-16T17:03:14.688Z,100247.41
2023-04-16T17:05:41.544Z,100248.72
2023-04-16T17:08:08.124Z,100247.97
2023-04-16T17:10:35.659Z,100240.59
2023-04-16T17:13:02.429Z,100271.69
2023-04-16T17:15:29.083Z,100255.75
2023-04-16T17:17:55.872Z,100265.50
2023-04-16T17:20:22.516Z,100258.88
2023-04-16T17:22:49.089Z,100252.41
2023-04-16T17:25:15.721Z,100260.13
2023-04-16T17:27:42.465Z,100254.22
2023-04-16T17:30:11.514Z,100263.66
2023-04-16T17:32:38.136Z,100264.19
2023-04-16T17:35:06.900Z,100268.06
2023-04-16T17:37:33.633Z,100275.50
2023-04-16T17:40:00.434Z,100266.72
2023-04-16T17:42:27.181Z,100276.00
2023-04-16T17:44:53.779Z,100273.81
2023-04-16T17:47:20.438Z,100264.78
2023-04-16T17:49:47.239Z,100261.44
2023-04-16T17:52:13.876Z,100267.50
2023-04-16T17:54:40.445Z,100271.94
2023-04-16T17:57:07.155Z,100274.97
2023-04-16T17:59:33.800Z,100285.34
2023-04-16T18:02:00.609Z,100281.03
2023-04-16T18:04:27.543Z,100272.50
2023-04-16T18:06:54.330Z,100279.94
2023-04-16T18:09:20.845Z,100292.09
2023-04-16T18:11:47.434Z,100277.66
2023-04-16T18:14:16.946Z,100289.31
2023-04-16T18:16:43.601Z,100291.84
2023-04-16T18:19:10.300Z,100286.22
2023-04-16T18:21:36.970Z,100283.78
2023-04-16T18:24:03.723Z,100280.31
2023-04-16T18:26:31.196Z,100274.41
2023-04-16T18:28:58.959Z,100281.75
2023-04-16T18:31:25.871Z,100276.84
2023-04-16T18:33:57.923Z,100283.09
2023-04-16T18:36:27.016Z,100271.56
2023-04-16T18:39:01.674Z,100281.44
2023-04-16T18:41:41.717Z,100276.53
2023-04-16T18:44:10.732Z,100294.25
2023-04-16T18:46:37.337Z,100274.78
2023-04-16T18:49:03.984Z,100276.38
2023-04-16T18:51:31.120Z,100270.44
2023-04-16T18:53:57.754Z,100277.16
2023-04-16T18:56:24.401Z,100272.69
2023-04-16T18:58:51.073Z,100276.38
2023-04-16T19:01:17.985Z,100267.34
2023-04-16T19:03:45.587Z,100275.88
2023-04-16T19:06:12.232Z,100270.78
2023-04-16T19:08:38.747Z,100262.84
2023-04-16T19:11:05.338Z,100265.78
2023-04-16T19:13:32.431Z,100261.56
2023-04-16T19:16:00.406Z,100271.63
2023-04-16T19:18:27.282Z,100268.03
2023-04-16T19:21:00.758Z,100280.78
2023-04-16T19:23:27.869Z,100261.91
2023-04-16T19:25:56.343Z,100258.69
2023-04-16T19:28:23.691Z,100249.59
2023-04-16T19:30:51.388Z,100257.69
2023-04-16T19:33:18.662Z,100258.13
2023-04-16T19:35:46.155Z,100234.78
2023-04-16T19:38:12.653Z,100252.25
2023-04-16T19:40:40.028Z,100261.03
2023-04-16T19:43:06.676Z,100277.78
2023-04-16T19:45:33.350Z,100276.22
2023-04-16T19:48:00.095Z,100274.41
2023-04-16T19:50:26.672Z,100270.69
2023-04-16T19:52:53.204Z,100271.78
2023-04-16T19:55:20.047Z,100261.44
2023-04-16T19:57:48.212Z,100258.13
2023-04-16T20:00:15.228Z,100259.84
2023-04-16T20:02:42.115Z,100265.66
2023-04-16T20:05:09.365Z,100251.38
2023-04-16T20:07:36.026Z,100260.94
2023-04-16T20:10:03.096Z,100266.78
2023-04-16T20:12:29.837Z,100261.09
2023-04-16T20:14:56.360Z,100266.19
2023-04-16T20:17:23.060Z,100268.38
2023-04-16T20:19:51.236Z,100255.25
2023-04-16T20:22:18.872Z,100239.25
2023-04-16T20:24:47.953Z,100243.94
2023-04-16T20:27:15.273Z,100242.25
2023-04-16T20:29:42.218Z,100246.44
2023-04-16T20:32:08.943Z,100252.75
2023-04-16T20:34:36.741Z,100240.63
2023-04-16T20:37:03.789Z,100236.91
2023-04-16T20:39:34.146Z,100239.19
2023-04-16T20:42:00.829Z,100243.78
2023-04-16T20:44:33.384Z,100241.69
2023-04-16T20:47:00.229Z,100243.63
2023-04-16T20:49:26.937Z,100235.94
2023-04-16T20:51:53.518Z,100232.59
2023-04-16T20:54:20.150Z,100233.66
2023-04-16T20:56:46.881Z,100215.16
2023-04-16T20:59:13.501Z,100211.78
2023-04-16T21:01:40.242Z,100217.72
2023-04-16T21:04:07.354Z,100217.44
2023-04-16T21:06:38.627Z,100209.84
2023-04-16T21:09:06.058Z,100205.34
2023-04-16T21:11:34.751Z,100202.44
2023-04-16T21:14:05.061Z,100196.28
2023-04-16T21:16:32.484Z,100199.31
2023-04-16T21:18:59.134Z,100196.31
2023-04-16T21:21:27.484Z,100196.41
2023-04-16T21:23:54.198Z,100198.44
2023-04-16T21:26:20.996Z,100195.66
2023-04-16T21:28:47.590Z,100192.88
2023-04-16T21:31:14.353Z,100194.38
2023-04-16T21:33:41.080Z,100197.50
2023-04-16T21:36:07.882Z,100204.88
2023-04-16T21:38:34.636Z,100198.03
2023-04-16T21:41:01.917Z,100194.72
2023-04-16T21:43:32.229Z,100188.25
2023-04-16T21:45:59.723Z,100193.00
2023-04-16T21:48:27.075Z,100198.03
2023-04-16T21:50:58.317Z,100204.50
2023-04-16T21:53:26.004Z,100202.78
2023-04-16T21:55:52.695Z,100195.19
2023-04-16T21:58:19.369Z,100193.97
2023-04-16T22:00:47.345Z,100187.34
2023-04-16T22:03:14.319Z,100189.34
2023-04-16T22:05:41.162Z,100187.41
2023-04-16T22:08:23.170Z,100186.75
2023-04-16T22:10:51.445Z,100188.03
2023-04-16T22:13:18.272Z,100185.31
2023-04-16T22:15:44.804Z,100184.13
2023-04-16T22:18:11.526Z,100179.41
2023-04-16T22:20:39.311Z,100174.56
2023-04-16T22:23:08.993Z,100179.56
2023-04-16T22:25:35.722Z,100171.69
2023-04-16T22:28:02.319Z,100175.38
2023-04-16T22:30:28.899Z,100169.38
2023-04-16T22:32:55.617Z,100159.78
2023-04-16T22:35:22.313Z,100163.91
2023-04-16T22:37:48.848Z,100152.53
2023-04-16T22:40:15.938Z,100154.75
2023-04-16T22:42:42.758Z,100139.50
2023-04-16T22:45:09.818Z,100145.31
2023-04-16T22:47:36.584Z,100136.81
2023-04-16T22:50:03.388Z,100135.69
2023-04-16T22:52:29.969Z,100123.91
2023-04-16T22:54:56.579Z,100128.59
2023-04-16T22:57:25.767Z,100134.00
2023-04-16T22:59:53.254Z,100132.84
2023-04-16T23:02:21.275Z,100122.16
2023-04-16T23:04:48.141Z,100134.00
2023-04-16T23:07:15.677Z,100131.69
2023-04-16T23:09:42.711Z,100147.19
2023-04-16T23:12:09.305Z,100130.09
2023-04-16T23:14:37.012Z,100128.09
2023-04-16T23:17:03.789Z,100129.97
2023-04-16T23:19:31.373Z,100131.84
2023-04-16T23:21:58.043Z,100124.53
2023-04-16T23:24:24.822Z,100132.97
2023-04-16T23:26:52.519Z,100131.59
2023-04-16T23:29:20.409Z,100127.50
2023-04-16T23:31:47.298Z,100126.44
2023-04-16T23:34:14.008Z,100131.34
2023-04-16T23:36:40.854Z,100131.97
2023-04-16T23:39:07.593Z,100122.06
2023-04-16T23:41:34.706Z,100118.69
2023-04-16T23:44:01.305Z,100124.72
2023-04-16T23:46:28.002Z,100113.66
2023-04-16T23:48:55.490Z,100124.69
2023-04-16T23:51:22.382Z,100127.13
2023-04-16T23:53:49.094Z,100117.13
2023-04-16T23:56:16.447Z,100108.88
2023-04-16T23:58:43.085Z,100113.56
